sensor_id;sensor_type;location;lat;lon;timestamp;pressure;altitude;pressure_sealevel;temperature;humidity
64243;BME280;50573;51.512;5.386;2022-07-06T00:03:44;102499.31;;;10.40;77.38
64243;BME280;50573;51.512;5.386;2022-07-06T00:13:53;102503.44;;;10.32;80.13
64243;BME280;50573;51.512;5.386;2022-07-06T00:23:59;102511.91;;;10.26;79.09
64243;BME280;50573;51.512;5.386;2022-07-06T00:34:02;102514.44;;;10.23;79.83
64243;BME280;50573;51.512;5.386;2022-07-06T00:44:08;102510.00;;;10.17;79.65
64243;BME280;50573;51.512;5.386;2022-07-06T00:54:12;102508.84;;;10.05;81.39
64243;BME280;50573;51.512;5.386;2022-07-06T01:04:16;102507.59;;;9.89;82.89
64243;BME280;50573;51.512;5.386;2022-07-06T01:14:20;102504.03;;;9.83;84.04
64243;BME280;50573;51.512;5.386;2022-07-06T01:24:25;102505.59;;;9.77;84.91
64243;BME280;50573;51.512;5.386;2022-07-06T01:34:28;102505.50;;;9.74;86.24
64243;BME280;50573;51.512;5.386;2022-07-06T01:44:33;102504.53;;;9.69;87.17
64243;BME280;50573;51.512;5.386;2022-07-06T01:54:36;102501.59;;;9.55;86.87
64243;BME280;50573;51.512;5.386;2022-07-06T02:04:41;102503.22;;;9.51;88.40
64243;BME280;50573;51.512;5.386;2022-07-06T02:14:44;102504.88;;;9.47;89.07
64243;BME280;50573;51.512;5.386;2022-07-06T02:24:49;102507.38;;;9.46;89.81
64243;BME280;50573;51.512;5.386;2022-07-06T02:34:53;102507.31;;;9.43;90.02
64243;BME280;50573;51.512;5.386;2022-07-06T02:44:57;102504.56;;;9.37;88.30
64243;BME280;50573;51.512;5.386;2022-07-06T02:55:03;102512.09;;;9.27;88.68
64243;BME280;50573;51.512;5.386;2022-07-06T03:05:08;102512.63;;;9.16;88.40
64243;BME280;50573;51.512;5.386;2022-07-06T03:15:11;102506.41;;;9.09;89.12
64243;BME280;50573;51.512;5.386;2022-07-06T03:25:20;102533.69;;;8.99;90.01
64243;BME280;50573;51.512;5.386;2022-07-06T03:35:23;102530.03;;;8.92;88.87
64243;BME280;50573;51.512;5.386;2022-07-06T03:45:29;102527.50;;;8.94;89.37
64243;BME280;50573;51.512;5.386;2022-07-06T03:55:34;102525.94;;;8.99;90.26
64243;BME280;50573;51.512;5.386;2022-07-06T04:05:42;102520.16;;;9.08;89.52
64243;BME280;50573;51.512;5.386;2022-07-06T04:15:46;102514.47;;;9.20;90.57
64243;BME280;50573;51.512;5.386;2022-07-06T04:25:51;102503.56;;;9.30;91.37
64243;BME280;50573;51.512;5.386;2022-07-06T04:35:54;102502.19;;;9.44;91.47
64243;BME280;50573;51.512;5.386;2022-07-06T04:46:04;102497.88;;;9.78;91.24
64243;BME280;50573;51.512;5.386;2022-07-06T04:56:11;102504.84;;;10.17;90.68
64243;BME280;50573;51.512;5.386;2022-07-06T05:06:16;102507.59;;;10.63;89.75
64243;BME280;50573;51.512;5.386;2022-07-06T05:16:21;102509.53;;;11.18;87.98
64243;BME280;50573;51.512;5.386;2022-07-06T05:26:26;102512.22;;;11.74;86.79
64243;BME280;50573;51.512;5.386;2022-07-06T05:36:30;102522.56;;;12.26;85.90
64243;BME280;50573;51.512;5.386;2022-07-06T05:46:35;102518.03;;;12.77;84.96
64243;BME280;50573;51.512;5.386;2022-07-06T05:56:40;102521.31;;;13.38;81.69
64243;BME280;50573;51.512;5.386;2022-07-06T06:06:45;102527.94;;;14.04;79.48
64243;BME280;50573;51.512;5.386;2022-07-06T06:16:52;102529.03;;;14.39;76.08
64243;BME280;50573;51.512;5.386;2022-07-06T06:26:59;102523.88;;;14.45;75.22
64243;BME280;50573;51.512;5.386;2022-07-06T06:37:06;102523.16;;;14.77;74.61
64243;BME280;50573;51.512;5.386;2022-07-06T06:47:20;102536.28;;;15.06;73.93
64243;BME280;50573;51.512;5.386;2022-07-06T06:57:23;102530.22;;;15.10;72.70
64243;BME280;50573;51.512;5.386;2022-07-06T07:07:32;102544.09;;;15.08;72.33
64243;BME280;50573;51.512;5.386;2022-07-06T07:17:41;102544.16;;;15.39;70.70
64243;BME280;50573;51.512;5.386;2022-07-06T07:27:50;102536.41;;;15.87;66.34
64243;BME280;50573;51.512;5.386;2022-07-06T07:37:56;102541.56;;;16.24;60.84
64243;BME280;50573;51.512;5.386;2022-07-06T07:48:07;102538.81;;;16.75;58.31
64243;BME280;50573;51.512;5.386;2022-07-06T07:58:13;102536.03;;;17.13;55.74
64243;BME280;50573;51.512;5.386;2022-07-06T08:08:24;102523.63;;;17.43;55.15
64243;BME280;50573;51.512;5.386;2022-07-06T08:18:28;102520.78;;;17.74;54.18
64243;BME280;50573;51.512;5.386;2022-07-06T08:28:40;102528.22;;;18.19;54.08
64243;BME280;50573;51.512;5.386;2022-07-06T08:38:46;102511.06;;;18.69;51.62
64243;BME280;50573;51.512;5.386;2022-07-06T08:48:57;102504.25;;;19.20;52.10
64243;BME280;50573;51.512;5.386;2022-07-06T08:59:02;102504.91;;;19.36;50.20
64243;BME280;50573;51.512;5.386;2022-07-06T09:09:19;102502.56;;;19.16;51.62
64243;BME280;50573;51.512;5.386;2022-07-06T09:19:22;102495.69;;;19.63;48.91
64243;BME280;50573;51.512;5.386;2022-07-06T09:29:28;102493.63;;;20.74;47.21
64243;BME280;50573;51.512;5.386;2022-07-06T09:39:34;102493.53;;;21.16;44.55
64243;BME280;50573;51.512;5.386;2022-07-06T09:49:46;102503.94;;;20.83;44.44
64243;BME280;50573;51.512;5.386;2022-07-06T09:59:52;102505.09;;;20.70;43.21
64243;BME280;50573;51.512;5.386;2022-07-06T10:10:02;102511.13;;;21.14;44.13
64243;BME280;50573;51.512;5.386;2022-07-06T10:20:11;102501.41;;;21.54;43.16
64243;BME280;50573;51.512;5.386;2022-07-06T10:30:19;102509.81;;;21.32;42.46
64243;BME280;50573;51.512;5.386;2022-07-06T10:40:31;102498.75;;;21.54;42.84
64243;BME280;50573;51.512;5.386;2022-07-06T10:50:55;102497.88;;;21.88;39.86
64243;BME280;50573;51.512;5.386;2022-07-06T11:00:59;102492.09;;;22.08;40.83
64243;BME280;50573;51.512;5.386;2022-07-06T11:11:12;102488.59;;;22.07;39.65
64243;BME280;50573;51.512;5.386;2022-07-06T11:21:17;102491.75;;;21.54;38.51
64243;BME280;50573;51.512;5.386;2022-07-06T11:31:22;102495.22;;;21.89;38.31
64243;BME280;50573;51.512;5.386;2022-07-06T11:41:25;102478.94;;;21.75;38.33
64243;BME280;50573;51.512;5.386;2022-07-06T11:51:32;102459.38;;;21.85;38.83
64243;BME280;50573;51.512;5.386;2022-07-06T12:01:35;102452.81;;;22.32;38.17
64243;BME280;50573;51.512;5.386;2022-07-06T12:11:45;102436.84;;;22.66;36.46
64243;BME280;50573;51.512;5.386;2022-07-06T12:21:50;102420.13;;;22.67;36.72
64243;BME280;50573;51.512;5.386;2022-07-06T12:31:56;102408.28;;;22.22;37.50
64243;BME280;50573;51.512;5.386;2022-07-06T12:42:04;102412.41;;;22.61;35.17
64243;BME280;50573;51.512;5.386;2022-07-06T12:52:13;102403.59;;;22.90;35.97
64243;BME280;50573;51.512;5.386;2022-07-06T13:02:26;102413.94;;;23.74;35.32
64243;BME280;50573;51.512;5.386;2022-07-06T13:12:51;102403.59;;;23.67;35.47
64243;BME280;50573;51.512;5.386;2022-07-06T13:22:54;102397.88;;;23.80;34.32
64243;BME280;50573;51.512;5.386;2022-07-06T13:32:59;102396.00;;;24.07;35.48
64243;BME280;50573;51.512;5.386;2022-07-06T13:43:02;102372.56;;;24.22;35.79
64243;BME280;50573;51.512;5.386;2022-07-06T13:53:06;102360.97;;;24.02;35.46
64243;BME280;50573;51.512;5.386;2022-07-06T14:03:10;102350.34;;;24.71;34.98
64243;BME280;50573;51.512;5.386;2022-07-06T14:13:20;102351.09;;;25.16;33.93
64243;BME280;50573;51.512;5.386;2022-07-06T14:23:28;102335.28;;;25.75;33.14
64243;BME280;50573;51.512;5.386;2022-07-06T14:33:36;102313.91;;;25.40;32.71
64243;BME280;50573;51.512;5.386;2022-07-06T14:43:45;102316.63;;;24.77;34.17
64243;BME280;50573;51.512;5.386;2022-07-06T14:53:51;102312.00;;;25.02;34.03
64243;BME280;50573;51.512;5.386;2022-07-06T15:04:00;102303.75;;;25.10;34.01
64243;BME280;50573;51.512;5.386;2022-07-06T15:14:10;102292.03;;;25.16;33.93
64243;BME280;50573;51.512;5.386;2022-07-06T15:24:16;102291.13;;;24.76;35.03
64243;BME280;50573;51.512;5.386;2022-07-06T15:34:27;102283.88;;;24.36;36.98
64243;BME280;50573;51.512;5.386;2022-07-06T15:44:34;102284.63;;;23.48;38.77
64243;BME280;50573;51.512;5.386;2022-07-06T15:54:42;102282.47;;;23.36;39.51
64243;BME280;50573;51.512;5.386;2022-07-06T16:04:51;102262.44;;;22.80;40.06
64243;BME280;50573;51.512;5.386;2022-07-06T16:14:59;102259.34;;;22.67;42.29
64243;BME280;50573;51.512;5.386;2022-07-06T16:25:11;102256.28;;;22.53;43.05
64243;BME280;50573;51.512;5.386;2022-07-06T16:35:16;102239.88;;;22.18;44.37
64243;BME280;50573;51.512;5.386;2022-07-06T16:45:22;102223.47;;;22.08;46.43
64243;BME280;50573;51.512;5.386;2022-07-06T16:55:36;102211.91;;;21.85;47.22
64243;BME280;50573;51.512;5.386;2022-07-06T17:05:39;102208.41;;;21.85;47.28
64243;BME280;50573;51.512;5.386;2022-07-06T17:15:49;102215.31;;;21.89;47.51
64243;BME280;50573;51.512;5.386;2022-07-06T17:25:56;102194.91;;;21.67;48.71
64243;BME280;50573;51.512;5.386;2022-07-06T17:36:04;102191.91;;;21.51;49.62
64243;BME280;50573;51.512;5.386;2022-07-06T17:46:14;102184.91;;;21.50;49.54
64243;BME280;50573;51.512;5.386;2022-07-06T17:56:22;102187.78;;;21.41;50.42
64243;BME280;50573;51.512;5.386;2022-07-06T18:06:28;102187.41;;;21.23;50.58
64243;BME280;50573;51.512;5.386;2022-07-06T18:16:39;102171.44;;;21.30;51.10
64243;BME280;50573;51.512;5.386;2022-07-06T18:26:46;102170.81;;;20.90;51.37
64243;BME280;50573;51.512;5.386;2022-07-06T18:36:53;102183.88;;;20.93;51.40
64243;BME280;50573;51.512;5.386;2022-07-06T18:47:03;102189.94;;;20.62;51.44
64243;BME280;50573;51.512;5.386;2022-07-06T18:57:11;102180.19;;;20.33;51.92
64243;BME280;50573;51.512;5.386;2022-07-06T19:07:18;102155.53;;;20.03;52.47
64243;BME280;50573;51.512;5.386;2022-07-06T19:17:30;102148.16;;;19.82;53.26
64243;BME280;50573;51.512;5.386;2022-07-06T19:27:35;102149.63;;;19.55;53.19
64243;BME280;50573;51.512;5.386;2022-07-06T19:37:40;102163.28;;;19.30;54.60
64243;BME280;50573;51.512;5.386;2022-07-06T19:47:43;102168.97;;;19.07;56.60
64243;BME280;50573;51.512;5.386;2022-07-06T19:57:48;102158.78;;;18.93;58.52
64243;BME280;50573;51.512;5.386;2022-07-06T20:07:51;102160.84;;;18.76;61.52
64243;BME280;50573;51.512;5.386;2022-07-06T20:17:55;102165.38;;;18.66;62.23
64243;BME280;50573;51.512;5.386;2022-07-06T20:27:59;102160.31;;;18.57;63.88
64243;BME280;50573;51.512;5.386;2022-07-06T20:38:03;102159.50;;;18.52;63.86
64243;BME280;50573;51.512;5.386;2022-07-06T20:48:06;102152.72;;;18.40;64.83
64243;BME280;50573;51.512;5.386;2022-07-06T20:58:11;102152.00;;;18.32;66.81
64243;BME280;50573;51.512;5.386;2022-07-06T21:08:14;102144.31;;;18.22;67.92
64243;BME280;50573;51.512;5.386;2022-07-06T21:18:19;102142.06;;;17.99;69.19
64243;BME280;50573;51.512;5.386;2022-07-06T21:28:22;102139.69;;;17.81;71.70
64243;BME280;50573;51.512;5.386;2022-07-06T21:38:27;102119.22;;;17.53;72.58
64243;BME280;50573;51.512;5.386;2022-07-06T21:48:30;102124.66;;;17.36;73.47
64243;BME280;50573;51.512;5.386;2022-07-06T21:58:35;102110.09;;;17.18;74.55
64243;BME280;50573;51.512;5.386;2022-07-06T22:08:39;102116.44;;;16.98;75.41
64243;BME280;50573;51.512;5.386;2022-07-06T22:18:46;102107.75;;;16.95;75.09
64243;BME280;50573;51.512;5.386;2022-07-06T22:28:50;102100.84;;;16.92;76.70
64243;BME280;50573;51.512;5.386;2022-07-06T22:38:55;102089.47;;;16.95;76.41
64243;BME280;50573;51.512;5.386;2022-07-06T22:48:58;102085.03;;;17.03;77.92
64243;BME280;50573;51.512;5.386;2022-07-06T22:59:03;102085.03;;;17.03;77.72
64243;BME280;50573;51.512;5.386;2022-07-06T23:09:08;102058.88;;;17.05;78.16
64243;BME280;50573;51.512;5.386;2022-07-06T23:19:13;102057.09;;;17.07;79.01
64243;BME280;50573;51.512;5.386;2022-07-06T23:29:16;102048.44;;;17.05;79.07
64243;BME280;50573;51.512;5.386;2022-07-06T23:39:21;102049.25;;;17.07;79.36
64243;BME280;50573;51.512;5.386;2022-07-06T23:49:24;102024.09;;;17.02;80.13
64243;BME280;50573;51.512;5.386;2022-07-06T23:59:30;101996.22;;;17.03;80.25
